sensor_id;sensor_type;location;lat;lon;timestamp;temperature;humidity
40257;DHT22;25977;45.462;9.210;2023-04-03T00:01:16;16.20;63.00
40257;DHT22;25977;45.462;9.210;2023-04-03T00:03:42;16.20;62.90
40257;DHT22;25977;45.462;9.210;2023-04-03T00:06:09;16.30;62.90
40257;DHT22;25977;45.462;9.210;2023-04-03T00:08:37;16.30;62.80
40257;DHT22;25977;45.462;9.210;2023-04-03T00:11:04;16.30;62.90
40257;DHT22;25977;45.462;9.210;2023-04-03T00:13:29;16.30;62.80
40257;DHT22;25977;45.462;9.210;2023-04-03T00:15:55;16.30;62.90
40257;DHT22;25977;45.462;9.210;2023-04-03T00:18:21;16.40;63.00
40257;DHT22;25977;45.462;9.210;2023-04-03T00:20:48;16.20;63.00
40257;DHT22;25977;45.462;9.210;2023-04-03T00:23:13;16.30;62.90
40257;DHT22;25977;45.462;9.210;2023-04-03T00:25:40;16.20;62.90
40257;DHT22;25977;45.462;9.210;2023-04-03T00:28:06;16.30;62.90
40257;DHT22;25977;45.462;9.210;2023-04-03T00:30:32;16.20;62.90
40257;DHT22;25977;45.462;9.210;2023-04-03T00:32:58;16.10;63.00
40257;DHT22;25977;45.462;9.210;2023-04-03T00:35:24;16.20;63.10
40257;DHT22;25977;45.462;9.210;2023-04-03T00:37:51;16.20;63.10
40257;DHT22;25977;45.462;9.210;2023-04-03T00:40:19;16.20;63.10
40257;DHT22;25977;45.462;9.210;2023-04-03T00:42:46;16.20;63.20
40257;DHT22;25977;45.462;9.210;2023-04-03T00:45:32;16.20;63.30
40257;DHT22;25977;45.462;9.210;2023-04-03T00:48:00;16.20;63.30
40257;DHT22;25977;45.462;9.210;2023-04-03T00:50:28;16.10;63.40
40257;DHT22;25977;45.462;9.210;2023-04-03T00:52:55;16.20;63.50
40257;DHT22;25977;45.462;9.210;2023-04-03T00:55:21;16.10;63.40
40257;DHT22;25977;45.462;9.210;2023-04-03T00:57:47;16.10;63.40
40257;DHT22;25977;45.462;9.210;2023-04-03T01:00:16;15.90;63.70
40257;DHT22;25977;45.462;9.210;2023-04-03T01:02:43;16.00;63.90
40257;DHT22;25977;45.462;9.210;2023-04-03T01:05:12;16.00;63.90
40257;DHT22;25977;45.462;9.210;2023-04-03T01:07:40;15.90;63.50
40257;DHT22;25977;45.462;9.210;2023-04-03T01:10:09;15.90;63.50
40257;DHT22;25977;45.462;9.210;2023-04-03T01:12:37;15.90;63.30
40257;DHT22;25977;45.462;9.210;2023-04-03T01:15:12;15.60;63.30
40257;DHT22;25977;45.462;9.210;2023-04-03T01:25:38;15.70;63.50
40257;DHT22;25977;45.462;9.210;2023-04-03T01:28:06;15.70;63.40
40257;DHT22;25977;45.462;9.210;2023-04-03T01:30:35;15.60;63.50
40257;DHT22;25977;45.462;9.210;2023-04-03T01:33:02;15.50;64.00
40257;DHT22;25977;45.462;9.210;2023-04-03T01:35:28;15.50;64.10
40257;DHT22;25977;45.462;9.210;2023-04-03T01:37:54;15.40;64.00
40257;DHT22;25977;45.462;9.210;2023-04-03T01:40:20;15.40;63.70
40257;DHT22;25977;45.462;9.210;2023-04-03T01:42:46;15.50;63.70
40257;DHT22;25977;45.462;9.210;2023-04-03T01:45:12;15.50;63.70
40257;DHT22;25977;45.462;9.210;2023-04-03T01:47:37;15.60;63.80
40257;DHT22;25977;45.462;9.210;2023-04-03T01:50:04;15.60;63.70
40257;DHT22;25977;45.462;9.210;2023-04-03T01:52:32;15.60;63.50
40257;DHT22;25977;45.462;9.210;2023-04-03T01:54:58;15.60;63.50
40257;DHT22;25977;45.462;9.210;2023-04-03T01:57:24;15.60;63.30
40257;DHT22;25977;45.462;9.210;2023-04-03T01:59:49;15.60;63.40
40257;DHT22;25977;45.462;9.210;2023-04-03T02:02:16;15.70;63.30
40257;DHT22;25977;45.462;9.210;2023-04-03T02:04:42;15.70;63.40
40257;DHT22;25977;45.462;9.210;2023-04-03T02:07:08;15.70;63.50
40257;DHT22;25977;45.462;9.210;2023-04-03T02:09:33;15.60;63.30
40257;DHT22;25977;45.462;9.210;2023-04-03T02:11:59;15.60;63.50
40257;DHT22;25977;45.462;9.210;2023-04-03T02:14:25;15.60;63.40
40257;DHT22;25977;45.462;9.210;2023-04-03T02:16:53;15.60;64.00
40257;DHT22;25977;45.462;9.210;2023-04-03T02:19:21;15.60;63.50
40257;DHT22;25977;45.462;9.210;2023-04-03T02:21:48;15.50;63.50
40257;DHT22;25977;45.462;9.210;2023-04-03T02:24:14;15.50;63.60
40257;DHT22;25977;45.462;9.210;2023-04-03T02:26:40;15.50;63.50
40257;DHT22;25977;45.462;9.210;2023-04-03T02:29:05;15.50;63.70
40257;DHT22;25977;45.462;9.210;2023-04-03T02:31:31;15.50;63.70
40257;DHT22;25977;45.462;9.210;2023-04-03T02:33:59;15.50;63.70
40257;DHT22;25977;45.462;9.210;2023-04-03T02:36:25;15.50;63.70
40257;DHT22;25977;45.462;9.210;2023-04-03T02:38:55;15.50;63.70
40257;DHT22;25977;45.462;9.210;2023-04-03T02:41:21;15.50;63.70
40257;DHT22;25977;45.462;9.210;2023-04-03T02:43:48;15.40;63.60
40257;DHT22;25977;45.462;9.210;2023-04-03T02:46:15;15.50;63.70
40257;DHT22;25977;45.462;9.210;2023-04-03T02:48:41;15.40;63.70
40257;DHT22;25977;45.462;9.210;2023-04-03T02:51:07;15.40;63.80
40257;DHT22;25977;45.462;9.210;2023-04-03T02:53:33;15.40;63.80
40257;DHT22;25977;45.462;9.210;2023-04-03T02:56:04;15.40;64.00
40257;DHT22;25977;45.462;9.210;2023-04-03T02:58:30;15.40;63.90
40257;DHT22;25977;45.462;9.210;2023-04-03T03:00:58;15.30;63.00
40257;DHT22;25977;45.462;9.210;2023-04-03T03:03:24;15.30;63.10
40257;DHT22;25977;45.462;9.210;2023-04-03T03:05:50;15.30;63.20
40257;DHT22;25977;45.462;9.210;2023-04-03T03:08:15;15.30;63.40
40257;DHT22;25977;45.462;9.210;2023-04-03T03:10:41;15.30;63.40
40257;DHT22;25977;45.462;9.210;2023-04-03T03:13:07;15.30;63.50
40257;DHT22;25977;45.462;9.210;2023-04-03T03:15:32;15.30;63.70
40257;DHT22;25977;45.462;9.210;2023-04-03T03:17:58;15.20;63.60
40257;DHT22;25977;45.462;9.210;2023-04-03T03:20:25;15.20;63.90
40257;DHT22;25977;45.462;9.210;2023-04-03T03:22:51;15.20;63.90
40257;DHT22;25977;45.462;9.210;2023-04-03T03:25:16;15.30;63.90
40257;DHT22;25977;45.462;9.210;2023-04-03T03:27:42;15.30;63.90
40257;DHT22;25977;45.462;9.210;2023-04-03T03:30:08;15.20;63.80
40257;DHT22;25977;45.462;9.210;2023-04-03T03:32:33;15.20;63.90
40257;DHT22;25977;45.462;9.210;2023-04-03T03:35:00;15.30;64.00
40257;DHT22;25977;45.462;9.210;2023-04-03T03:37:26;15.20;64.10
40257;DHT22;25977;45.462;9.210;2023-04-03T03:39:53;15.20;64.00
40257;DHT22;25977;45.462;9.210;2023-04-03T03:42:19;15.20;63.90
40257;DHT22;25977;45.462;9.210;2023-04-03T03:44:44;15.10;63.90
40257;DHT22;25977;45.462;9.210;2023-04-03T03:47:11;15.20;63.90
40257;DHT22;25977;45.462;9.210;2023-04-03T03:49:37;15.20;64.00
40257;DHT22;25977;45.462;9.210;2023-04-03T03:52:02;15.20;63.90
40257;DHT22;25977;45.462;9.210;2023-04-03T03:54:28;15.20;63.90
40257;DHT22;25977;45.462;9.210;2023-04-03T03:56:54;15.20;64.00
40257;DHT22;25977;45.462;9.210;2023-04-03T03:59:22;15.20;64.10
40257;DHT22;25977;45.462;9.210;2023-04-03T04:01:48;15.20;64.20
40257;DHT22;25977;45.462;9.210;2023-04-03T04:04:14;15.20;64.30
40257;DHT22;25977;45.462;9.210;2023-04-03T04:06:39;15.20;64.50
40257;DHT22;25977;45.462;9.210;2023-04-03T04:09:09;15.20;64.70
40257;DHT22;25977;45.462;9.210;2023-04-03T04:11:34;15.20;64.70
40257;DHT22;25977;45.462;9.210;2023-04-03T04:14:01;15.10;64.80
40257;DHT22;25977;45.462;9.210;2023-04-03T04:16:28;15.10;64.90
40257;DHT22;25977;45.462;9.210;2023-04-03T04:18:57;15.10;64.90
40257;DHT22;25977;45.462;9.210;2023-04-03T04:21:23;15.40;86.50
40257;DHT22;25977;45.462;9.210;2023-04-03T04:23:51;14.50;68.80
40257;DHT22;25977;45.462;9.210;2023-04-03T04:26:17;15.20;64.50
40257;DHT22;25977;45.462;9.210;2023-04-03T04:28:43;15.10;65.00
40257;DHT22;25977;45.462;9.210;2023-04-03T04:31:09;15.10;65.10
40257;DHT22;25977;45.462;9.210;2023-04-03T04:33:35;15.10;65.20
40257;DHT22;25977;45.462;9.210;2023-04-03T04:36:03;15.00;65.40
40257;DHT22;25977;45.462;9.210;2023-04-03T04:38:29;15.00;65.50
40257;DHT22;25977;45.462;9.210;2023-04-03T04:40:56;15.00;65.60
40257;DHT22;25977;45.462;9.210;2023-04-03T04:43:22;15.00;65.70
40257;DHT22;25977;45.462;9.210;2023-04-03T04:46:05;15.00;65.70
40257;DHT22;25977;45.462;9.210;2023-04-03T04:48:34;15.00;65.60
40257;DHT22;25977;45.462;9.210;2023-04-03T04:51:01;14.90;65.50
40257;DHT22;25977;45.462;9.210;2023-04-03T04:53:27;14.90;65.40
40257;DHT22;25977;45.462;9.210;2023-04-03T04:55:53;14.80;65.30
40257;DHT22;25977;45.462;9.210;2023-04-03T04:58:19;14.80;65.40
40257;DHT22;25977;45.462;9.210;2023-04-03T05:00:46;14.70;65.50
40257;DHT22;25977;45.462;9.210;2023-04-03T05:03:12;14.80;65.70
40257;DHT22;25977;45.462;9.210;2023-04-03T05:05:37;14.80;65.90
40257;DHT22;25977;45.462;9.210;2023-04-03T05:08:04;14.70;66.00
40257;DHT22;25977;45.462;9.210;2023-04-03T05:10:30;14.70;66.20
40257;DHT22;25977;45.462;9.210;2023-04-03T05:12:57;14.60;66.30
40257;DHT22;25977;45.462;9.210;2023-04-03T05:15:23;14.60;66.40
40257;DHT22;25977;45.462;9.210;2023-04-03T05:17:49;14.60;66.60
40257;DHT22;25977;45.462;9.210;2023-04-03T05:20:15;14.60;67.20
40257;DHT22;25977;45.462;9.210;2023-04-03T05:22:42;14.60;66.60
40257;DHT22;25977;45.462;9.210;2023-04-03T05:25:09;14.60;66.40
40257;DHT22;25977;45.462;9.210;2023-04-03T05:27:34;14.70;66.60
40257;DHT22;25977;45.462;9.210;2023-04-03T05:30:01;14.60;66.60
40257;DHT22;25977;45.462;9.210;2023-04-03T05:32:27;14.60;66.70
40257;DHT22;25977;45.462;9.210;2023-04-03T05:35:06;14.60;66.80
40257;DHT22;25977;45.462;9.210;2023-04-03T05:37:33;14.60;66.90
40257;DHT22;25977;45.462;9.210;2023-04-03T05:39:59;14.60;67.00
40257;DHT22;25977;45.462;9.210;2023-04-03T05:42:24;14.70;67.00
40257;DHT22;25977;45.462;9.210;2023-04-03T05:44:50;14.60;66.80
40257;DHT22;25977;45.462;9.210;2023-04-03T05:47:17;14.90;66.80
40257;DHT22;25977;45.462;9.210;2023-04-03T05:49:43;14.30;66.90
40257;DHT22;25977;45.462;9.210;2023-04-03T05:57:18;14.20;66.90
40257;DHT22;25977;45.462;9.210;2023-04-03T05:59:45;14.10;67.20
40257;DHT22;25977;45.462;9.210;2023-04-03T06:02:18;13.70;75.80
40257;DHT22;25977;45.462;9.210;2023-04-03T06:07:15;13.90;69.70
40257;DHT22;25977;45.462;9.210;2023-04-03T06:09:42;13.80;68.40
40257;DHT22;25977;45.462;9.210;2023-04-03T06:12:08;13.60;68.40
40257;DHT22;25977;45.462;9.210;2023-04-03T06:14:34;14.40;68.50
40257;DHT22;25977;45.462;9.210;2023-04-03T06:17:01;13.80;67.60
40257;DHT22;25977;45.462;9.210;2023-04-03T06:19:27;13.90;68.10
40257;DHT22;25977;45.462;9.210;2023-04-03T06:21:55;14.40;68.00
40257;DHT22;25977;45.462;9.210;2023-04-03T06:24:23;14.10;67.50
40257;DHT22;25977;45.462;9.210;2023-04-03T06:26:51;14.40;67.10
40257;DHT22;25977;45.462;9.210;2023-04-03T06:29:21;14.70;66.70
40257;DHT22;25977;45.462;9.210;2023-04-03T06:31:47;15.70;65.00
40257;DHT22;25977;45.462;9.210;2023-04-03T06:34:13;17.20;60.20
40257;DHT22;25977;45.462;9.210;2023-04-03T06:36:39;19.50;53.50
40257;DHT22;25977;45.462;9.210;2023-04-03T06:39:05;20.60;51.90
40257;DHT22;25977;45.462;9.210;2023-04-03T06:41:31;20.70;52.30
40257;DHT22;25977;45.462;9.210;2023-04-03T06:46:24;22.80;50.50
40257;DHT22;25977;45.462;9.210;2023-04-03T06:48:50;23.60;47.20
40257;DHT22;25977;45.462;9.210;2023-04-03T06:53:50;23.90;46.90
40257;DHT22;25977;45.462;9.210;2023-04-03T06:56:17;24.10;46.70
40257;DHT22;25977;45.462;9.210;2023-04-03T06:58:44;24.50;46.10
40257;DHT22;25977;45.462;9.210;2023-04-03T07:01:11;24.80;45.80
40257;DHT22;25977;45.462;9.210;2023-04-03T07:03:38;25.00;45.50
40257;DHT22;25977;45.462;9.210;2023-04-03T07:06:05;25.20;45.20
40257;DHT22;25977;45.462;9.210;2023-04-03T07:08:31;25.50;44.90
40257;DHT22;25977;45.462;9.210;2023-04-03T07:10:57;25.70;44.70
40257;DHT22;25977;45.462;9.210;2023-04-03T07:13:23;26.10;44.40
40257;DHT22;25977;45.462;9.210;2023-04-03T07:15:48;26.20;44.40
40257;DHT22;25977;45.462;9.210;2023-04-03T07:18:14;26.20;44.20
40257;DHT22;25977;45.462;9.210;2023-04-03T07:20:40;26.30;43.60
40257;DHT22;25977;45.462;9.210;2023-04-03T07:23:06;26.40;44.10
40257;DHT22;25977;45.462;9.210;2023-04-03T07:25:31;26.50;44.00
40257;DHT22;25977;45.462;9.210;2023-04-03T07:27:57;26.50;44.00
40257;DHT22;25977;45.462;9.210;2023-04-03T07:30:23;25.70;43.60
40257;DHT22;25977;45.462;9.210;2023-04-03T07:32:49;26.00;44.00
40257;DHT22;25977;45.462;9.210;2023-04-03T07:35:15;26.00;43.70
40257;DHT22;25977;45.462;9.210;2023-04-03T07:37:41;25.40;43.80
40257;DHT22;25977;45.462;9.210;2023-04-03T07:40:08;25.60;44.40
40257;DHT22;25977;45.462;9.210;2023-04-03T07:42:34;25.00;44.80
40257;DHT22;25977;45.462;9.210;2023-04-03T07:45:01;24.80;45.10
40257;DHT22;25977;45.462;9.210;2023-04-03T07:47:27;23.80;46.00
40257;DHT22;25977;45.462;9.210;2023-04-03T07:49:53;22.20;47.80
40257;DHT22;25977;45.462;9.210;2023-04-03T07:52:19;21.70;48.50
40257;DHT22;25977;45.462;9.210;2023-04-03T07:57:11;19.50;49.30
40257;DHT22;25977;45.462;9.210;2023-04-03T07:59:37;21.00;50.50
40257;DHT22;25977;45.462;9.210;2023-04-03T08:02:02;20.50;51.20
40257;DHT22;25977;45.462;9.210;2023-04-03T08:04:30;20.40;51.90
40257;DHT22;25977;45.462;9.210;2023-04-03T08:06:56;19.60;52.90
40257;DHT22;25977;45.462;9.210;2023-04-03T08:09:21;19.60;53.50
40257;DHT22;25977;45.462;9.210;2023-04-03T08:11:47;19.70;53.60
40257;DHT22;25977;45.462;9.210;2023-04-03T08:14:13;19.80;53.30
40257;DHT22;25977;45.462;9.210;2023-04-03T08:16:43;19.30;53.80
40257;DHT22;25977;45.462;9.210;2023-04-03T08:19:09;18.70;55.00
40257;DHT22;25977;45.462;9.210;2023-04-03T08:21:36;19.00;55.00
40257;DHT22;25977;45.462;9.210;2023-04-03T08:24:02;19.30;54.70
40257;DHT22;25977;45.462;9.210;2023-04-03T08:26:28;19.20;54.90
40257;DHT22;25977;45.462;9.210;2023-04-03T08:28:54;19.10;54.80
40257;DHT22;25977;45.462;9.210;2023-04-03T08:31:20;19.20;54.90
40257;DHT22;25977;45.462;9.210;2023-04-03T08:33:46;19.10;55.20
40257;DHT22;25977;45.462;9.210;2023-04-03T08:36:21;19.30;54.90
40257;DHT22;25977;45.462;9.210;2023-04-03T08:38:47;19.10;55.00
40257;DHT22;25977;45.462;9.210;2023-04-03T08:41:27;18.90;55.70
40257;DHT22;25977;45.462;9.210;2023-04-03T08:49:22;19.50;56.00
40257;DHT22;25977;45.462;9.210;2023-04-03T08:51:51;19.60;55.30
40257;DHT22;25977;45.462;9.210;2023-04-03T08:54:38;19.30;55.70
40257;DHT22;25977;45.462;9.210;2023-04-03T08:57:07;19.30;56.10
40257;DHT22;25977;45.462;9.210;2023-04-03T08:59:35;19.20;56.30
40257;DHT22;25977;45.462;9.210;2023-04-03T09:02:21;19.20;56.50
40257;DHT22;25977;45.462;9.210;2023-04-03T09:04:48;19.10;56.80
40257;DHT22;25977;45.462;9.210;2023-04-03T09:07:54;19.20;56.80
40257;DHT22;25977;45.462;9.210;2023-04-03T09:10:13;18.50;57.80
40257;DHT22;25977;45.462;9.210;2023-04-03T09:12:43;18.30;58.80
40257;DHT22;25977;45.462;9.210;2023-04-03T09:15:20;18.30;58.70
40257;DHT22;25977;45.462;9.210;2023-04-03T09:23:34;19.10;57.80
40257;DHT22;25977;45.462;9.210;2023-04-03T09:26:13;19.20;57.80
40257;DHT22;25977;45.462;9.210;2023-04-03T09:28:40;18.70;58.30
40257;DHT22;25977;45.462;9.210;2023-04-03T09:31:28;18.60;58.90
40257;DHT22;25977;45.462;9.210;2023-04-03T09:34:11;18.90;58.10
40257;DHT22;25977;45.462;9.210;2023-04-03T09:36:49;19.10;57.70
40257;DHT22;25977;45.462;9.210;2023-04-03T09:39:28;18.90;57.70
40257;DHT22;25977;45.462;9.210;2023-04-03T09:42:02;18.90;58.10
40257;DHT22;25977;45.462;9.210;2023-04-03T09:44:34;19.00;58.10
40257;DHT22;25977;45.462;9.210;2023-04-03T09:47:27;19.00;58.40
40257;DHT22;25977;45.462;9.210;2023-04-03T09:52:37;19.10;57.40
40257;DHT22;25977;45.462;9.210;2023-04-03T09:57:48;19.10;57.50
40257;DHT22;25977;45.462;9.210;2023-04-03T10:00:25;19.10;57.90
40257;DHT22;25977;45.462;9.210;2023-04-03T10:02:54;19.20;57.80
40257;DHT22;25977;45.462;9.210;2023-04-03T10:05:36;19.50;57.50
40257;DHT22;25977;45.462;9.210;2023-04-03T10:10:33;19.50;57.50
40257;DHT22;25977;45.462;9.210;2023-04-03T10:13:09;19.30;57.00
40257;DHT22;25977;45.462;9.210;2023-04-03T10:15:42;19.20;57.20
40257;DHT22;25977;45.462;9.210;2023-04-03T10:20:49;19.40;56.40
40257;DHT22;25977;45.462;9.210;2023-04-03T10:34:27;19.40;64.50
40257;DHT22;25977;45.462;9.210;2023-04-03T10:42:39;19.70;57.40
40257;DHT22;25977;45.462;9.210;2023-04-03T10:48:18;19.60;57.50
40257;DHT22;25977;45.462;9.210;2023-04-03T10:51:08;19.70;57.50
40257;DHT22;25977;45.462;9.210;2023-04-03T10:56:15;19.40;58.00
40257;DHT22;25977;45.462;9.210;2023-04-03T10:58:49;19.50;57.90
40257;DHT22;25977;45.462;9.210;2023-04-03T11:01:21;19.50;57.80
40257;DHT22;25977;45.462;9.210;2023-04-03T11:03:57;19.40;57.80
40257;DHT22;25977;45.462;9.210;2023-04-03T11:06:28;19.20;57.90
40257;DHT22;25977;45.462;9.210;2023-04-03T11:09:01;19.20;58.00
40257;DHT22;25977;45.462;9.210;2023-04-03T11:11:37;19.00;64.70
40257;DHT22;25977;45.462;9.210;2023-04-03T11:14:27;19.50;75.10
40257;DHT22;25977;45.462;9.210;2023-04-03T11:23:12;19.60;56.30
40257;DHT22;25977;45.462;9.210;2023-04-03T11:25:42;19.50;57.20
40257;DHT22;25977;45.462;9.210;2023-04-03T11:28:13;19.20;57.90
40257;DHT22;25977;45.462;9.210;2023-04-03T11:36:00;19.00;57.90
40257;DHT22;25977;45.462;9.210;2023-04-03T11:38:30;18.90;58.00
40257;DHT22;25977;45.462;9.210;2023-04-03T11:41:00;18.90;58.70
40257;DHT22;25977;45.462;9.210;2023-04-03T11:43:31;18.50;58.10
40257;DHT22;25977;45.462;9.210;2023-04-03T11:46:04;18.50;59.20
40257;DHT22;25977;45.462;9.210;2023-04-03T11:53:39;18.70;58.50
40257;DHT22;25977;45.462;9.210;2023-04-03T12:01:47;19.20;56.90
40257;DHT22;25977;45.462;9.210;2023-04-03T12:04:15;19.20;56.30
40257;DHT22;25977;45.462;9.210;2023-04-03T12:06:47;19.30;55.70
40257;DHT22;25977;45.462;9.210;2023-04-03T12:09:52;19.40;54.70
40257;DHT22;25977;45.462;9.210;2023-04-03T12:12:38;19.10;54.70
40257;DHT22;25977;45.462;9.210;2023-04-03T12:15:24;19.10;55.80
40257;DHT22;25977;45.462;9.210;2023-04-03T12:17:51;19.30;55.10
40257;DHT22;25977;45.462;9.210;2023-04-03T12:23:33;19.40;55.10
40257;DHT22;25977;45.462;9.210;2023-04-03T12:26:22;19.60;55.30
40257;DHT22;25977;45.462;9.210;2023-04-03T12:28:48;19.30;55.70
40257;DHT22;25977;45.462;9.210;2023-04-03T12:31:14;19.20;55.70
40257;DHT22;25977;45.462;9.210;2023-04-03T12:37:24;18.90;55.50
40257;DHT22;25977;45.462;9.210;2023-04-03T12:39:52;19.10;55.40
40257;DHT22;25977;45.462;9.210;2023-04-03T12:45:24;19.10;54.70
40257;DHT22;25977;45.462;9.210;2023-04-03T12:47:53;19.10;54.30
40257;DHT22;25977;45.462;9.210;2023-04-03T12:50:31;19.20;54.40
40257;DHT22;25977;45.462;9.210;2023-04-03T12:53:06;19.10;55.60
40257;DHT22;25977;45.462;9.210;2023-04-03T12:55:32;18.90;56.00
40257;DHT22;25977;45.462;9.210;2023-04-03T12:58:14;18.90;55.70
40257;DHT22;25977;45.462;9.210;2023-04-03T13:00:42;18.90;55.70
40257;DHT22;25977;45.462;9.210;2023-04-03T13:03:22;19.10;55.40
40257;DHT22;25977;45.462;9.210;2023-04-03T13:05:49;19.10;55.30
40257;DHT22;25977;45.462;9.210;2023-04-03T13:08:17;19.40;54.60
40257;DHT22;25977;45.462;9.210;2023-04-03T13:10:54;19.10;54.20
40257;DHT22;25977;45.462;9.210;2023-04-03T13:13:20;19.10;54.10
40257;DHT22;25977;45.462;9.210;2023-04-03T13:15:47;19.20;54.40
40257;DHT22;25977;45.462;9.210;2023-04-03T13:18:26;19.30;54.60
40257;DHT22;25977;45.462;9.210;2023-04-03T13:20:52;19.40;53.50
40257;DHT22;25977;45.462;9.210;2023-04-03T13:23:19;19.40;54.00
40257;DHT22;25977;45.462;9.210;2023-04-03T13:25:48;19.60;54.20
40257;DHT22;25977;45.462;9.210;2023-04-03T13:28:21;19.60;53.90
40257;DHT22;25977;45.462;9.210;2023-04-03T13:31:28;19.70;53.70
40257;DHT22;25977;45.462;9.210;2023-04-03T13:34:16;19.60;53.70
40257;DHT22;25977;45.462;9.210;2023-04-03T13:36:57;19.60;53.80
40257;DHT22;25977;45.462;9.210;2023-04-03T13:41:55;19.50;53.80
40257;DHT22;25977;45.462;9.210;2023-04-03T13:46:51;18.80;54.20
40257;DHT22;25977;45.462;9.210;2023-04-03T13:49:37;19.10;54.40
40257;DHT22;25977;45.462;9.210;2023-04-03T13:54:59;19.30;54.00
40257;DHT22;25977;45.462;9.210;2023-04-03T13:57:26;19.30;53.60
40257;DHT22;25977;45.462;9.210;2023-04-03T13:59:52;19.40;53.50
40257;DHT22;25977;45.462;9.210;2023-04-03T14:02:30;19.20;53.80
40257;DHT22;25977;45.462;9.210;2023-04-03T14:04:59;19.20;54.50
40257;DHT22;25977;45.462;9.210;2023-04-03T14:07:28;18.90;54.50
40257;DHT22;25977;45.462;9.210;2023-04-03T14:09:53;19.20;54.50
40257;DHT22;25977;45.462;9.210;2023-04-03T14:14:52;19.20;54.70
40257;DHT22;25977;45.462;9.210;2023-04-03T14:17:21;19.10;54.80
40257;DHT22;25977;45.462;9.210;2023-04-03T14:19:48;18.80;55.30
40257;DHT22;25977;45.462;9.210;2023-04-03T14:22:25;18.60;55.70
40257;DHT22;25977;45.462;9.210;2023-04-03T14:24:52;18.50;55.60
40257;DHT22;25977;45.462;9.210;2023-04-03T14:27:37;18.50;55.60
40257;DHT22;25977;45.462;9.210;2023-04-03T14:30:05;18.90;67.30
40257;DHT22;25977;45.462;9.210;2023-04-03T14:32:31;18.60;55.40
40257;DHT22;25977;45.462;9.210;2023-04-03T14:34:58;18.40;56.10
40257;DHT22;25977;45.462;9.210;2023-04-03T14:37:30;18.40;56.20
40257;DHT22;25977;45.462;9.210;2023-04-03T14:39:57;18.40;56.80
40257;DHT22;25977;45.462;9.210;2023-04-03T14:47:22;18.50;56.90
40257;DHT22;25977;45.462;9.210;2023-04-03T14:52:27;18.40;56.20
40257;DHT22;25977;45.462;9.210;2023-04-03T14:54:54;18.40;56.60
40257;DHT22;25977;45.462;9.210;2023-04-03T14:57:22;18.30;56.00
40257;DHT22;25977;45.462;9.210;2023-04-03T14:59:49;17.90;62.80
40257;DHT22;25977;45.462;9.210;2023-04-03T15:12:10;17.40;59.00
40257;DHT22;25977;45.462;9.210;2023-04-03T15:17:04;17.40;56.40
40257;DHT22;25977;45.462;9.210;2023-04-03T15:19:38;17.70;61.00
40257;DHT22;25977;45.462;9.210;2023-04-03T15:22:04;17.60;56.60
40257;DHT22;25977;45.462;9.210;2023-04-03T15:26:56;17.50;56.40
40257;DHT22;25977;45.462;9.210;2023-04-03T15:29:21;17.30;56.80
40257;DHT22;25977;45.462;9.210;2023-04-03T15:31:47;17.40;79.40
40257;DHT22;25977;45.462;9.210;2023-04-03T15:39:07;17.50;62.00
40257;DHT22;25977;45.462;9.210;2023-04-03T15:51:18;17.00;56.40
40257;DHT22;25977;45.462;9.210;2023-04-03T15:53:43;17.00;56.50
40257;DHT22;25977;45.462;9.210;2023-04-03T15:56:09;16.70;56.40
40257;DHT22;25977;45.462;9.210;2023-04-03T15:58:35;16.70;56.80
40257;DHT22;25977;45.462;9.210;2023-04-03T16:01:01;16.70;72.30
40257;DHT22;25977;45.462;9.210;2023-04-03T16:03:27;16.60;62.50
40257;DHT22;25977;45.462;9.210;2023-04-03T16:08:19;16.90;71.60
40257;DHT22;25977;45.462;9.210;2023-04-03T16:10:45;17.20;69.20
40257;DHT22;25977;45.462;9.210;2023-04-03T16:32:49;16.20;64.30
40257;DHT22;25977;45.462;9.210;2023-04-03T16:35:15;16.10;56.50
40257;DHT22;25977;45.462;9.210;2023-04-03T16:37:40;16.20;56.70
40257;DHT22;25977;45.462;9.210;2023-04-03T16:40:07;16.40;56.40
40257;DHT22;25977;45.462;9.210;2023-04-03T16:42:33;16.30;56.50
40257;DHT22;25977;45.462;9.210;2023-04-03T16:44:58;16.20;56.40
40257;DHT22;25977;45.462;9.210;2023-04-03T16:47:26;16.00;56.80
40257;DHT22;25977;45.462;9.210;2023-04-03T16:49:52;16.00;57.00
40257;DHT22;25977;45.462;9.210;2023-04-03T16:52:18;16.20;56.80
40257;DHT22;25977;45.462;9.210;2023-04-03T16:54:44;16.00;56.80
40257;DHT22;25977;45.462;9.210;2023-04-03T16:57:10;15.90;56.80
40257;DHT22;25977;45.462;9.210;2023-04-03T16:59:35;15.90;56.80
40257;DHT22;25977;45.462;9.210;2023-04-03T17:02:01;15.60;56.70
40257;DHT22;25977;45.462;9.210;2023-04-03T17:04:28;15.80;56.70
40257;DHT22;25977;45.462;9.210;2023-04-03T17:06:54;15.60;56.70
40257;DHT22;25977;45.462;9.210;2023-04-03T17:09:20;15.80;72.70
40257;DHT22;25977;45.462;9.210;2023-04-03T17:14:13;15.60;56.00
40257;DHT22;25977;45.462;9.210;2023-04-03T17:33:47;15.90;65.10
40257;DHT22;25977;45.462;9.210;2023-04-03T17:36:13;15.60;55.70
40257;DHT22;25977;45.462;9.210;2023-04-03T17:38:39;15.40;55.90
40257;DHT22;25977;45.462;9.210;2023-04-03T17:41:07;15.40;56.00
40257;DHT22;25977;45.462;9.210;2023-04-03T17:43:34;15.40;56.10
40257;DHT22;25977;45.462;9.210;2023-04-03T17:46:02;15.20;59.50
40257;DHT22;25977;45.462;9.210;2023-04-03T17:48:32;15.40;65.70
40257;DHT22;25977;45.462;9.210;2023-04-03T18:05:36;15.20;63.40
40257;DHT22;25977;45.462;9.210;2023-04-03T18:08:02;15.80;56.70
40257;DHT22;25977;45.462;9.210;2023-04-03T18:10:28;15.00;56.70
40257;DHT22;25977;45.462;9.210;2023-04-03T18:12:55;14.90;56.70
40257;DHT22;25977;45.462;9.210;2023-04-03T18:15:23;14.80;57.00
40257;DHT22;25977;45.462;9.210;2023-04-03T18:17:49;15.00;56.80
40257;DHT22;25977;45.462;9.210;2023-04-03T18:20:16;15.10;56.90
40257;DHT22;25977;45.462;9.210;2023-04-03T18:22:42;14.80;57.10
40257;DHT22;25977;45.462;9.210;2023-04-03T18:25:09;14.80;57.30
40257;DHT22;25977;45.462;9.210;2023-04-03T18:27:36;15.00;57.10
40257;DHT22;25977;45.462;9.210;2023-04-03T18:30:08;15.10;56.70
40257;DHT22;25977;45.462;9.210;2023-04-03T18:32:34;14.80;57.20
40257;DHT22;25977;45.462;9.210;2023-04-03T18:37:26;14.60;57.10
40257;DHT22;25977;45.462;9.210;2023-04-03T18:39:52;14.50;73.90
40257;DHT22;25977;45.462;9.210;2023-04-03T18:42:21;14.30;57.10
40257;DHT22;25977;45.462;9.210;2023-04-03T18:44:52;14.30;57.00
40257;DHT22;25977;45.462;9.210;2023-04-03T18:47:19;14.40;56.80
40257;DHT22;25977;45.462;9.210;2023-04-03T18:49:45;14.60;70.60
40257;DHT22;25977;45.462;9.210;2023-04-03T18:52:11;14.40;74.50
40257;DHT22;25977;45.462;9.210;2023-04-03T18:54:37;14.60;75.70
40257;DHT22;25977;45.462;9.210;2023-04-03T19:04:22;14.40;58.00
40257;DHT22;25977;45.462;9.210;2023-04-03T19:06:48;14.40;56.30
40257;DHT22;25977;45.462;9.210;2023-04-03T19:09:14;14.10;56.60
40257;DHT22;25977;45.462;9.210;2023-04-03T19:11:40;14.20;56.30